sensor_id;sensor_type;location;lat;lon;timestamp;temperature;humidity
55331;DHT22;58851;42.984;20.336;2023-01-23T00:00:11;205.10;6502.40
55331;DHT22;58851;42.984;20.336;2023-01-23T00:02:37;205.10;6502.40
55331;DHT22;58851;42.984;20.336;2023-01-23T00:05:03;205.10;6502.40
55331;DHT22;58851;42.984;20.336;2023-01-23T00:07:29;205.10;6502.40
55331;DHT22;58851;42.984;20.336;2023-01-23T00:09:55;205.10;6502.40
55331;DHT22;58851;42.984;20.336;2023-01-23T00:12:21;205.10;6502.40
55331;DHT22;58851;42.984;20.336;2023-01-23T00:14:46;205.10;6502.40
55331;DHT22;58851;42.984;20.336;2023-01-23T00:17:12;205.20;6502.40
55331;DHT22;58851;42.984;20.336;2023-01-23T00:19:38;205.20;6502.40
55331;DHT22;58851;42.984;20.336;2023-01-23T00:22:05;205.20;6502.40
55331;DHT22;58851;42.984;20.336;2023-01-23T00:24:30;205.20;6502.40
55331;DHT22;58851;42.984;20.336;2023-01-23T00:26:56;205.20;6502.40
55331;DHT22;58851;42.984;20.336;2023-01-23T00:29:22;205.20;6502.40
55331;DHT22;58851;42.984;20.336;2023-01-23T00:31:48;205.10;6502.40
55331;DHT22;58851;42.984;20.336;2023-01-23T00:34:14;205.10;6502.40
55331;DHT22;58851;42.984;20.336;2023-01-23T00:36:41;205.00;6502.40
55331;DHT22;58851;42.984;20.336;2023-01-23T00:39:19;204.90;6502.40
55331;DHT22;58851;42.984;20.336;2023-01-23T00:41:46;204.80;6502.40
55331;DHT22;58851;42.984;20.336;2023-01-23T00:44:13;204.80;6502.40
55331;DHT22;58851;42.984;20.336;2023-01-23T00:46:39;180.10;6502.40
55331;DHT22;58851;42.984;20.336;2023-01-23T00:49:05;180.10;6502.40
55331;DHT22;58851;42.984;20.336;2023-01-23T00:51:31;180.00;6502.40
55331;DHT22;58851;42.984;20.336;2023-01-23T00:53:57;180.00;6502.40
55331;DHT22;58851;42.984;20.336;2023-01-23T00:56:23;180.10;6502.40
55331;DHT22;58851;42.984;20.336;2023-01-23T00:58:49;180.10;6502.40
55331;DHT22;58851;42.984;20.336;2023-01-23T01:01:15;204.80;6502.40
55331;DHT22;58851;42.984;20.336;2023-01-23T01:03:41;204.80;6502.40
55331;DHT22;58851;42.984;20.336;2023-01-23T01:06:08;204.80;6502.40
55331;DHT22;58851;42.984;20.336;2023-01-23T01:08:34;204.90;6502.40
55331;DHT22;58851;42.984;20.336;2023-01-23T01:11:00;204.90;6502.40
55331;DHT22;58851;42.984;20.336;2023-01-23T01:13:26;204.90;6502.40
55331;DHT22;58851;42.984;20.336;2023-01-23T01:15:53;204.90;6502.40
55331;DHT22;58851;42.984;20.336;2023-01-23T01:18:20;205.00;6502.40
55331;DHT22;58851;42.984;20.336;2023-01-23T01:20:46;205.00;6502.40
55331;DHT22;58851;42.984;20.336;2023-01-23T01:23:12;205.00;6502.40
55331;DHT22;58851;42.984;20.336;2023-01-23T01:25:38;204.90;6502.40
55331;DHT22;58851;42.984;20.336;2023-01-23T01:28:04;204.90;6502.40
55331;DHT22;58851;42.984;20.336;2023-01-23T01:30:30;204.90;6502.40
55331;DHT22;58851;42.984;20.336;2023-01-23T01:32:56;204.90;6502.40
55331;DHT22;58851;42.984;20.336;2023-01-23T01:35:22;204.90;6502.40
55331;DHT22;58851;42.984;20.336;2023-01-23T01:37:49;204.90;6502.40
55331;DHT22;58851;42.984;20.336;2023-01-23T01:40:20;204.90;6502.40
55331;DHT22;58851;42.984;20.336;2023-01-23T01:42:51;204.90;6502.40
55331;DHT22;58851;42.984;20.336;2023-01-23T01:48:23;204.90;6502.40
55331;DHT22;58851;42.984;20.336;2023-01-23T01:50:50;204.90;6502.40
55331;DHT22;58851;42.984;20.336;2023-01-23T01:53:16;204.90;6502.40
55331;DHT22;58851;42.984;20.336;2023-01-23T01:55:43;204.90;6502.40
55331;DHT22;58851;42.984;20.336;2023-01-23T01:58:09;204.90;6502.40
55331;DHT22;58851;42.984;20.336;2023-01-23T02:00:35;204.90;6502.40
55331;DHT22;58851;42.984;20.336;2023-01-23T02:03:02;204.90;6502.40
55331;DHT22;58851;42.984;20.336;2023-01-23T02:05:43;204.90;6502.40
55331;DHT22;58851;42.984;20.336;2023-01-23T02:08:22;204.90;6502.40
55331;DHT22;58851;42.984;20.336;2023-01-23T02:10:50;204.90;6502.40
55331;DHT22;58851;42.984;20.336;2023-01-23T02:13:24;204.90;6502.40
55331;DHT22;58851;42.984;20.336;2023-01-23T02:15:53;204.90;6502.40
55331;DHT22;58851;42.984;20.336;2023-01-23T02:18:19;204.90;6502.40
55331;DHT22;58851;42.984;20.336;2023-01-23T02:20:47;204.80;6502.40
55331;DHT22;58851;42.984;20.336;2023-01-23T02:23:55;204.90;6502.40
55331;DHT22;58851;42.984;20.336;2023-01-23T02:26:22;204.90;6502.40
55331;DHT22;58851;42.984;20.336;2023-01-23T02:28:51;204.90;6502.40
55331;DHT22;58851;42.984;20.336;2023-01-23T02:31:18;204.80;6502.40
55331;DHT22;58851;42.984;20.336;2023-01-23T02:33:49;204.90;6502.40
55331;DHT22;58851;42.984;20.336;2023-01-23T02:36:17;204.90;6502.40
55331;DHT22;58851;42.984;20.336;2023-01-23T02:39:09;204.90;6502.40
55331;DHT22;58851;42.984;20.336;2023-01-23T02:41:41;204.90;6502.40
55331;DHT22;58851;42.984;20.336;2023-01-23T02:46:43;204.90;6502.40
55331;DHT22;58851;42.984;20.336;2023-01-23T02:49:09;204.90;6502.40
55331;DHT22;58851;42.984;20.336;2023-01-23T02:51:35;205.00;6502.40
55331;DHT22;58851;42.984;20.336;2023-01-23T02:54:01;205.00;6502.40
55331;DHT22;58851;42.984;20.336;2023-01-23T02:56:27;205.00;6502.40
55331;DHT22;58851;42.984;20.336;2023-01-23T02:58:52;205.10;6502.40
55331;DHT22;58851;42.984;20.336;2023-01-23T03:01:37;205.00;6502.40
55331;DHT22;58851;42.984;20.336;2023-01-23T03:04:03;205.00;6502.40
55331;DHT22;58851;42.984;20.336;2023-01-23T03:06:33;205.00;6502.40
55331;DHT22;58851;42.984;20.336;2023-01-23T03:09:05;205.00;6502.40
55331;DHT22;58851;42.984;20.336;2023-01-23T03:11:33;205.00;6502.40
55331;DHT22;58851;42.984;20.336;2023-01-23T03:13:59;205.10;6502.40
55331;DHT22;58851;42.984;20.336;2023-01-23T03:16:26;205.00;6502.40
55331;DHT22;58851;42.984;20.336;2023-01-23T03:18:53;205.00;6502.40
55331;DHT22;58851;42.984;20.336;2023-01-23T03:21:19;205.00;6502.40
55331;DHT22;58851;42.984;20.336;2023-01-23T03:23:45;205.00;6502.40
55331;DHT22;58851;42.984;20.336;2023-01-23T03:26:12;204.90;6502.40
55331;DHT22;58851;42.984;20.336;2023-01-23T03:28:38;204.90;6502.40
55331;DHT22;58851;42.984;20.336;2023-01-23T03:31:23;204.90;6502.40
55331;DHT22;58851;42.984;20.336;2023-01-23T03:33:48;205.00;6502.40
55331;DHT22;58851;42.984;20.336;2023-01-23T03:36:14;205.00;6502.40
55331;DHT22;58851;42.984;20.336;2023-01-23T03:38:40;205.00;6502.40
55331;DHT22;58851;42.984;20.336;2023-01-23T03:41:26;205.00;6502.40
55331;DHT22;58851;42.984;20.336;2023-01-23T03:43:52;205.10;6502.40
55331;DHT22;58851;42.984;20.336;2023-01-23T03:46:18;205.10;6502.40
55331;DHT22;58851;42.984;20.336;2023-01-23T03:48:43;205.10;6502.40
55331;DHT22;58851;42.984;20.336;2023-01-23T03:51:09;205.10;6502.40
55331;DHT22;58851;42.984;20.336;2023-01-23T03:53:35;205.10;6502.40
55331;DHT22;58851;42.984;20.336;2023-01-23T03:56:01;205.00;6502.40
55331;DHT22;58851;42.984;20.336;2023-01-23T03:58:26;205.00;6502.40
55331;DHT22;58851;42.984;20.336;2023-01-23T04:00:52;205.00;6502.40
55331;DHT22;58851;42.984;20.336;2023-01-23T04:03:18;205.00;6502.40
55331;DHT22;58851;42.984;20.336;2023-01-23T04:05:44;205.00;6502.40
55331;DHT22;58851;42.984;20.336;2023-01-23T04:08:09;205.00;6502.40
55331;DHT22;58851;42.984;20.336;2023-01-23T04:10:35;205.00;6502.40
55331;DHT22;58851;42.984;20.336;2023-01-23T04:13:01;205.00;6502.40
55331;DHT22;58851;42.984;20.336;2023-01-23T04:15:27;205.00;6502.40
55331;DHT22;58851;42.984;20.336;2023-01-23T04:17:53;205.00;6502.40
55331;DHT22;58851;42.984;20.336;2023-01-23T04:20:19;205.00;6502.40
55331;DHT22;58851;42.984;20.336;2023-01-23T04:22:44;205.00;6502.40
55331;DHT22;58851;42.984;20.336;2023-01-23T04:25:10;205.10;6502.40
55331;DHT22;58851;42.984;20.336;2023-01-23T04:27:36;205.00;6502.40
55331;DHT22;58851;42.984;20.336;2023-01-23T04:30:02;205.00;6502.40
55331;DHT22;58851;42.984;20.336;2023-01-23T04:32:28;205.00;6502.40
55331;DHT22;58851;42.984;20.336;2023-01-23T04:34:53;205.00;6502.40
55331;DHT22;58851;42.984;20.336;2023-01-23T04:37:19;205.00;6502.40
55331;DHT22;58851;42.984;20.336;2023-01-23T04:39:45;205.00;6502.40
55331;DHT22;58851;42.984;20.336;2023-01-23T04:42:11;205.00;6502.40
55331;DHT22;58851;42.984;20.336;2023-01-23T04:44:36;205.00;6502.40
55331;DHT22;58851;42.984;20.336;2023-01-23T04:47:02;204.90;6502.40
55331;DHT22;58851;42.984;20.336;2023-01-23T04:49:28;205.00;6502.40
55331;DHT22;58851;42.984;20.336;2023-01-23T04:51:54;205.00;6502.40
55331;DHT22;58851;42.984;20.336;2023-01-23T04:54:20;205.00;6502.40
55331;DHT22;58851;42.984;20.336;2023-01-23T04:56:46;205.00;6502.40
55331;DHT22;58851;42.984;20.336;2023-01-23T04:59:13;205.00;6502.40
55331;DHT22;58851;42.984;20.336;2023-01-23T05:01:40;205.00;6502.40
55331;DHT22;58851;42.984;20.336;2023-01-23T05:04:06;205.00;6502.40
55331;DHT22;58851;42.984;20.336;2023-01-23T05:06:32;204.90;6502.40
55331;DHT22;58851;42.984;20.336;2023-01-23T05:08:58;204.90;6502.40
55331;DHT22;58851;42.984;20.336;2023-01-23T05:11:23;204.90;6502.40
55331;DHT22;58851;42.984;20.336;2023-01-23T05:13:49;204.90;6502.40
55331;DHT22;58851;42.984;20.336;2023-01-23T05:16:15;204.90;6502.40
55331;DHT22;58851;42.984;20.336;2023-01-23T05:18:41;204.90;6502.40
55331;DHT22;58851;42.984;20.336;2023-01-23T05:21:07;204.90;6502.40
55331;DHT22;58851;42.984;20.336;2023-01-23T05:23:32;204.90;6502.40
55331;DHT22;58851;42.984;20.336;2023-01-23T05:25:58;204.90;6502.40
55331;DHT22;58851;42.984;20.336;2023-01-23T05:28:24;204.90;6502.40
55331;DHT22;58851;42.984;20.336;2023-01-23T05:30:49;204.90;6502.40
55331;DHT22;58851;42.984;20.336;2023-01-23T05:33:15;204.90;6502.40
55331;DHT22;58851;42.984;20.336;2023-01-23T05:35:41;204.90;6502.40
55331;DHT22;58851;42.984;20.336;2023-01-23T05:38:07;204.90;6502.40
55331;DHT22;58851;42.984;20.336;2023-01-23T05:40:32;204.90;6502.40
55331;DHT22;58851;42.984;20.336;2023-01-23T05:42:58;204.80;6502.40
55331;DHT22;58851;42.984;20.336;2023-01-23T05:45:24;204.80;6502.40
55331;DHT22;58851;42.984;20.336;2023-01-23T05:47:49;204.80;6502.40
55331;DHT22;58851;42.984;20.336;2023-01-23T05:50:19;204.80;6502.40
55331;DHT22;58851;42.984;20.336;2023-01-23T05:52:46;204.90;6502.40
55331;DHT22;58851;42.984;20.336;2023-01-23T05:55:12;204.80;6502.40
55331;DHT22;58851;42.984;20.336;2023-01-23T05:57:38;204.80;6502.40
55331;DHT22;58851;42.984;20.336;2023-01-23T06:00:05;204.90;6502.40
55331;DHT22;58851;42.984;20.336;2023-01-23T06:02:32;204.90;6502.40
55331;DHT22;58851;42.984;20.336;2023-01-23T06:04:58;204.90;6502.40
55331;DHT22;58851;42.984;20.336;2023-01-23T06:07:24;204.90;6502.40
55331;DHT22;58851;42.984;20.336;2023-01-23T06:09:50;204.90;6502.40
55331;DHT22;58851;42.984;20.336;2023-01-23T06:12:16;204.90;6502.40
55331;DHT22;58851;42.984;20.336;2023-01-23T06:14:41;204.90;6502.40
55331;DHT22;58851;42.984;20.336;2023-01-23T06:17:08;204.90;6502.40
55331;DHT22;58851;42.984;20.336;2023-01-23T06:19:36;204.90;128.00
55331;DHT22;58851;42.984;20.336;2023-01-23T06:22:02;204.90;128.00
55331;DHT22;58851;42.984;20.336;2023-01-23T06:24:28;204.90;6502.40
55331;DHT22;58851;42.984;20.336;2023-01-23T06:26:53;204.90;6502.40
55331;DHT22;58851;42.984;20.336;2023-01-23T06:29:19;204.90;6528.00
55331;DHT22;58851;42.984;20.336;2023-01-23T06:31:45;204.90;6528.00
55331;DHT22;58851;42.984;20.336;2023-01-23T06:34:13;204.90;128.00
55331;DHT22;58851;42.984;20.336;2023-01-23T06:36:38;204.90;128.00
55331;DHT22;58851;42.984;20.336;2023-01-23T06:39:05;205.00;128.00
55331;DHT22;58851;42.984;20.336;2023-01-23T06:41:31;205.00;153.60
55331;DHT22;58851;42.984;20.336;2023-01-23T06:43:57;205.00;128.00
55331;DHT22;58851;42.984;20.336;2023-01-23T06:46:23;204.90;332.80
55331;DHT22;58851;42.984;20.336;2023-01-23T06:48:50;204.90;230.40
55331;DHT22;58851;42.984;20.336;2023-01-23T06:51:17;205.00;384.00
55331;DHT22;58851;42.984;20.336;2023-01-23T06:53:43;205.00;384.00
55331;DHT22;58851;42.984;20.336;2023-01-23T06:56:08;205.00;384.00
55331;DHT22;58851;42.984;20.336;2023-01-23T06:58:34;205.00;384.00
55331;DHT22;58851;42.984;20.336;2023-01-23T07:01:13;205.00;409.60
55331;DHT22;58851;42.984;20.336;2023-01-23T07:03:40;205.10;204.80
55331;DHT22;58851;42.984;20.336;2023-01-23T07:06:07;205.00;256.00
55331;DHT22;58851;42.984;20.336;2023-01-23T07:08:34;205.00;153.60
55331;DHT22;58851;42.984;20.336;2023-01-23T07:11:00;205.00;6528.00
55331;DHT22;58851;42.984;20.336;2023-01-23T07:13:29;205.10;6502.40
55331;DHT22;58851;42.984;20.336;2023-01-23T07:15:58;205.10;6502.40
55331;DHT22;58851;42.984;20.336;2023-01-23T07:18:24;205.10;6502.40
55331;DHT22;58851;42.984;20.336;2023-01-23T07:20:53;205.10;6502.40
55331;DHT22;58851;42.984;20.336;2023-01-23T07:23:19;205.10;6502.40
55331;DHT22;58851;42.984;20.336;2023-01-23T07:25:45;205.20;6502.40
55331;DHT22;58851;42.984;20.336;2023-01-23T07:28:11;205.10;6502.40
55331;DHT22;58851;42.984;20.336;2023-01-23T07:30:37;205.20;6502.40
55331;DHT22;58851;42.984;20.336;2023-01-23T07:33:03;205.20;6502.40
55331;DHT22;58851;42.984;20.336;2023-01-23T07:35:29;205.20;6502.40
55331;DHT22;58851;42.984;20.336;2023-01-23T07:37:55;205.20;6502.40
55331;DHT22;58851;42.984;20.336;2023-01-23T07:40:21;205.20;6502.40
55331;DHT22;58851;42.984;20.336;2023-01-23T07:42:46;205.30;6502.40
55331;DHT22;58851;42.984;20.336;2023-01-23T07:45:12;205.30;6502.40
55331;DHT22;58851;42.984;20.336;2023-01-23T07:47:38;205.30;6502.40
55331;DHT22;58851;42.984;20.336;2023-01-23T07:50:11;205.40;6502.40
55331;DHT22;58851;42.984;20.336;2023-01-23T07:52:37;205.30;6502.40
55331;DHT22;58851;42.984;20.336;2023-01-23T07:55:04;205.30;6502.40
55331;DHT22;58851;42.984;20.336;2023-01-23T07:57:30;205.40;6502.40
55331;DHT22;58851;42.984;20.336;2023-01-23T07:59:55;205.40;6502.40
55331;DHT22;58851;42.984;20.336;2023-01-23T08:02:21;205.50;6502.40
55331;DHT22;58851;42.984;20.336;2023-01-23T08:04:47;205.60;6502.40
55331;DHT22;58851;42.984;20.336;2023-01-23T08:07:13;205.60;6502.40
55331;DHT22;58851;42.984;20.336;2023-01-23T08:09:38;205.60;6502.40
55331;DHT22;58851;42.984;20.336;2023-01-23T08:12:05;205.70;6502.40
55331;DHT22;58851;42.984;20.336;2023-01-23T08:14:31;205.70;6502.40
55331;DHT22;58851;42.984;20.336;2023-01-23T08:16:56;230.40;6502.40
55331;DHT22;58851;42.984;20.336;2023-01-23T08:19:22;205.70;6502.40
55331;DHT22;58851;42.984;20.336;2023-01-23T08:21:49;205.70;6502.40
55331;DHT22;58851;42.984;20.336;2023-01-23T08:24:16;205.70;6502.40
55331;DHT22;58851;42.984;20.336;2023-01-23T08:26:42;205.70;6502.40
55331;DHT22;58851;42.984;20.336;2023-01-23T08:29:08;230.40;6502.40
55331;DHT22;58851;42.984;20.336;2023-01-23T08:31:35;230.40;6502.40
55331;DHT22;58851;42.984;20.336;2023-01-23T08:34:01;205.70;6502.40
55331;DHT22;58851;42.984;20.336;2023-01-23T08:36:27;205.70;6502.40
55331;DHT22;58851;42.984;20.336;2023-01-23T08:38:53;205.70;6502.40
55331;DHT22;58851;42.984;20.336;2023-01-23T08:41:20;205.60;6502.40
55331;DHT22;58851;42.984;20.336;2023-01-23T08:43:48;205.60;6502.40
55331;DHT22;58851;42.984;20.336;2023-01-23T08:46:14;205.60;6502.40
55331;DHT22;58851;42.984;20.336;2023-01-23T08:48:40;205.60;128.00
55331;DHT22;58851;42.984;20.336;2023-01-23T08:51:11;205.50;435.20
55331;DHT22;58851;42.984;20.336;2023-01-23T08:53:37;205.50;307.20
55331;DHT22;58851;42.984;20.336;2023-01-23T08:56:06;205.50;409.60
55331;DHT22;58851;42.984;20.336;2023-01-23T08:58:32;205.50;6502.40
55331;DHT22;58851;42.984;20.336;2023-01-23T09:00:58;205.60;384.00
55331;DHT22;58851;42.984;20.336;2023-01-23T09:03:24;205.50;6502.40
55331;DHT22;58851;42.984;20.336;2023-01-23T09:05:50;205.50;307.20
55331;DHT22;58851;42.984;20.336;2023-01-23T09:08:16;205.40;6502.40
55331;DHT22;58851;42.984;20.336;2023-01-23T09:10:41;205.40;6502.40
55331;DHT22;58851;42.984;20.336;2023-01-23T09:13:07;205.50;6502.40
55331;DHT22;58851;42.984;20.336;2023-01-23T09:15:33;205.60;6502.40
55331;DHT22;58851;42.984;20.336;2023-01-23T09:17:59;205.70;6502.40
55331;DHT22;58851;42.984;20.336;2023-01-23T09:20:25;205.70;6502.40
55331;DHT22;58851;42.984;20.336;2023-01-23T09:22:51;205.70;6502.40
55331;DHT22;58851;42.984;20.336;2023-01-23T09:25:17;205.70;6502.40
55331;DHT22;58851;42.984;20.336;2023-01-23T09:27:43;205.70;6502.40
55331;DHT22;58851;42.984;20.336;2023-01-23T09:30:09;205.60;6502.40
55331;DHT22;58851;42.984;20.336;2023-01-23T09:32:35;205.60;6502.40
55331;DHT22;58851;42.984;20.336;2023-01-23T09:35:01;205.70;6502.40
55331;DHT22;58851;42.984;20.336;2023-01-23T09:37:30;205.60;6502.40
55331;DHT22;58851;42.984;20.336;2023-01-23T09:40:18;205.60;6502.40
55331;DHT22;58851;42.984;20.336;2023-01-23T09:42:44;205.60;6502.40
55331;DHT22;58851;42.984;20.336;2023-01-23T09:45:11;205.60;6502.40
55331;DHT22;58851;42.984;20.336;2023-01-23T09:50:30;205.60;6502.40
55331;DHT22;58851;42.984;20.336;2023-01-23T09:53:18;205.60;6502.40
55331;DHT22;58851;42.984;20.336;2023-01-23T09:55:52;205.60;6502.40
55331;DHT22;58851;42.984;20.336;2023-01-23T09:58:28;205.60;6502.40
55331;DHT22;58851;42.984;20.336;2023-01-23T10:00:54;205.60;6502.40
55331;DHT22;58851;42.984;20.336;2023-01-23T10:03:23;205.60;6502.40
55331;DHT22;58851;42.984;20.336;2023-01-23T10:08:40;205.60;6502.40
55331;DHT22;58851;42.984;20.336;2023-01-23T10:19:42;205.70;6502.40
55331;DHT22;58851;42.984;20.336;2023-01-23T10:24:59;230.40;6502.40
55331;DHT22;58851;42.984;20.336;2023-01-23T10:27:34;205.70;6502.40
55331;DHT22;58851;42.984;20.336;2023-01-23T10:33:13;205.60;6502.40
55331;DHT22;58851;42.984;20.336;2023-01-23T10:35:57;230.40;6502.40
55331;DHT22;58851;42.984;20.336;2023-01-23T10:38:32;230.50;6502.40
55331;DHT22;58851;42.984;20.336;2023-01-23T10:41:00;230.40;6502.40
55331;DHT22;58851;42.984;20.336;2023-01-23T10:43:38;230.40;6502.40
55331;DHT22;58851;42.984;20.336;2023-01-23T10:46:22;230.40;6502.40
55331;DHT22;58851;42.984;20.336;2023-01-23T10:48:53;230.40;6502.40
55331;DHT22;58851;42.984;20.336;2023-01-23T10:51:43;230.50;6502.40
55331;DHT22;58851;42.984;20.336;2023-01-23T10:54:14;230.50;6502.40
55331;DHT22;58851;42.984;20.336;2023-01-23T10:59:57;230.70;6502.40
55331;DHT22;58851;42.984;20.336;2023-01-23T11:02:29;230.80;6502.40
55331;DHT22;58851;42.984;20.336;2023-01-23T11:04:55;231.00;6502.40
55331;DHT22;58851;42.984;20.336;2023-01-23T11:07:26;231.00;6502.40
55331;DHT22;58851;42.984;20.336;2023-01-23T11:10:35;231.10;6502.40
55331;DHT22;58851;42.984;20.336;2023-01-23T11:12:52;256.00;6502.40
55331;DHT22;58851;42.984;20.336;2023-01-23T11:17:50;256.20;6502.40
55331;DHT22;58851;42.984;20.336;2023-01-23T11:20:39;256.40;6502.40
55331;DHT22;58851;42.984;20.336;2023-01-23T11:25:36;256.40;6502.40
55331;DHT22;58851;42.984;20.336;2023-01-23T11:34:00;256.20;6502.40
55331;DHT22;58851;42.984;20.336;2023-01-23T11:36:37;256.20;6502.40
55331;DHT22;58851;42.984;20.336;2023-01-23T11:41:43;256.00;6502.40
55331;DHT22;58851;42.984;20.336;2023-01-23T11:44:16;256.10;128.00
55331;DHT22;58851;42.984;20.336;2023-01-23T11:46:50;256.00;6502.40
55331;DHT22;58851;42.984;20.336;2023-01-23T11:49:23;256.20;6502.40
55331;DHT22;58851;42.984;20.336;2023-01-23T11:57:38;256.40;6502.40
55331;DHT22;58851;42.984;20.336;2023-01-23T12:03:14;256.50;6502.40
55331;DHT22;58851;42.984;20.336;2023-01-23T12:08:31;256.40;6502.40
55331;DHT22;58851;42.984;20.336;2023-01-23T12:12:02;256.40;6502.40
55331;DHT22;58851;42.984;20.336;2023-01-23T12:14:17;256.20;6502.40
55331;DHT22;58851;42.984;20.336;2023-01-23T12:17:00;256.20;6502.40
55331;DHT22;58851;42.984;20.336;2023-01-23T12:22:22;256.20;6502.40
55331;DHT22;58851;42.984;20.336;2023-01-23T12:27:44;256.20;6502.40
55331;DHT22;58851;42.984;20.336;2023-01-23T12:41:41;231.20;204.80
55331;DHT22;58851;42.984;20.336;2023-01-23T12:44:23;256.00;6502.40
55331;DHT22;58851;42.984;20.336;2023-01-23T12:47:11;256.00;204.80
55331;DHT22;58851;42.984;20.336;2023-01-23T12:49:53;256.00;460.80
55331;DHT22;58851;42.984;20.336;2023-01-23T12:52:38;256.00;537.60
55331;DHT22;58851;42.984;20.336;2023-01-23T12:55:15;256.10;6502.40
55331;DHT22;58851;42.984;20.336;2023-01-23T12:57:42;256.20;6502.40
55331;DHT22;58851;42.984;20.336;2023-01-23T13:05:50;256.30;128.00
55331;DHT22;58851;42.984;20.336;2023-01-23T13:11:16;256.30;6502.40
55331;DHT22;58851;42.984;20.336;2023-01-23T13:14:02;256.30;6502.40
55331;DHT22;58851;42.984;20.336;2023-01-23T13:16:47;256.00;6502.40
55331;DHT22;58851;42.984;20.336;2023-01-23T13:19:25;231.20;6502.40
55331;DHT22;58851;42.984;20.336;2023-01-23T13:22:27;231.10;6502.40
55331;DHT22;58851;42.984;20.336;2023-01-23T13:25:10;230.90;563.20
55331;DHT22;58851;42.984;20.336;2023-01-23T13:27:55;230.90;6502.40
55331;DHT22;58851;42.984;20.336;2023-01-23T13:32:52;230.70;6502.40
55331;DHT22;58851;42.984;20.336;2023-01-23T13:52:21;205.40;6502.40
55331;DHT22;58851;42.984;20.336;2023-01-23T13:55:30;205.30;6502.40
55331;DHT22;58851;42.984;20.336;2023-01-23T13:58:16;205.20;6502.40
55331;DHT22;58851;42.984;20.336;2023-01-23T14:03:37;205.00;6502.40
55331;DHT22;58851;42.984;20.336;2023-01-23T14:06:38;205.00;128.00
55331;DHT22;58851;42.984;20.336;2023-01-23T14:09:21;205.10;6502.40
55331;DHT22;58851;42.984;20.336;2023-01-23T14:11:59;205.00;6502.40
55331;DHT22;58851;42.984;20.336;2023-01-23T14:14:32;204.90;6502.40
55331;DHT22;58851;42.984;20.336;2023-01-23T14:17:17;204.90;204.80
55331;DHT22;58851;42.984;20.336;2023-01-23T14:20:05;204.90;307.20
55331;DHT22;58851;42.984;20.336;2023-01-23T14:22:37;204.80;6502.40
55331;DHT22;58851;42.984;20.336;2023-01-23T14:25:13;204.90;6502.40
55331;DHT22;58851;42.984;20.336;2023-01-23T14:27:41;205.10;358.40
55331;DHT22;58851;42.984;20.336;2023-01-23T14:30:16;205.20;6502.40
55331;DHT22;58851;42.984;20.336;2023-01-23T14:32:43;205.20;128.00
55331;DHT22;58851;42.984;20.336;2023-01-23T14:35:17;205.20;6502.40
55331;DHT22;58851;42.984;20.336;2023-01-23T14:37:43;205.30;153.60
55331;DHT22;58851;42.984;20.336;2023-01-23T14:40:17;205.30;6502.40
55331;DHT22;58851;42.984;20.336;2023-01-23T14:42:44;205.30;6502.40
55331;DHT22;58851;42.984;20.336;2023-01-23T14:45:11;205.30;153.60
55331;DHT22;58851;42.984;20.336;2023-01-23T14:47:45;205.50;409.60
55331;DHT22;58851;42.984;20.336;2023-01-23T14:50:20;205.50;204.80
55331;DHT22;58851;42.984;20.336;2023-01-23T14:53:00;205.50;6502.40
55331;DHT22;58851;42.984;20.336;2023-01-23T14:55:27;205.50;6502.40
55331;DHT22;58851;42.984;20.336;2023-01-23T14:57:56;205.50;6502.40
55331;DHT22;58851;42.984;20.336;2023-01-23T15:00:24;205.50;6502.40
55331;DHT22;58851;42.984;20.336;2023-01-23T15:02:50;205.50;6502.40
55331;DHT22;58851;42.984;20.336;2023-01-23T15:07:55;205.50;6502.40
55331;DHT22;58851;42.984;20.336;2023-01-23T15:10:27;205.50;6502.40
55331;DHT22;58851;42.984;20.336;2023-01-23T15:12:58;205.40;6502.40
55331;DHT22;58851;42.984;20.336;2023-01-23T15:15:26;205.40;6502.40
55331;DHT22;58851;42.984;20.336;2023-01-23T15:17:53;205.40;6502.40
55331;DHT22;58851;42.984;20.336;2023-01-23T15:20:38;205.40;6502.40
55331;DHT22;58851;42.984;20.336;2023-01-23T15:23:33;205.50;6502.40
55331;DHT22;58851;42.984;20.336;2023-01-23T15:26:33;205.50;6502.40
55331;DHT22;58851;42.984;20.336;2023-01-23T15:29:14;205.50;6502.40
55331;DHT22;58851;42.984;20.336;2023-01-23T15:31:45;205.50;6502.40
55331;DHT22;58851;42.984;20.336;2023-01-23T15:36:55;205.40;6502.40
55331;DHT22;58851;42.984;20.336;2023-01-23T15:42:03;205.40;6502.40
55331;DHT22;58851;42.984;20.336;2023-01-23T15:44:32;205.30;6502.40
55331;DHT22;58851;42.984;20.336;2023-01-23T15:46:58;205.30;6502.40
55331;DHT22;58851;42.984;20.336;2023-01-23T15:49:26;205.30;6502.40
55331;DHT22;58851;42.984;20.336;2023-01-23T15:52:01;205.30;6502.40
55331;DHT22;58851;42.984;20.336;2023-01-23T15:54:32;205.30;6502.40
55331;DHT22;58851;42.984;20.336;2023-01-23T15:56:58;205.30;6502.40
55331;DHT22;58851;42.984;20.336;2023-01-23T15:59:25;205.30;6502.40
55331;DHT22;58851;42.984;20.336;2023-01-23T16:01:51;205.30;6502.40
55331;DHT22;58851;42.984;20.336;2023-01-23T16:04:17;205.30;6502.40
55331;DHT22;58851;42.984;20.336;2023-01-23T16:06:43;205.30;6502.40
55331;DHT22;58851;42.984;20.336;2023-01-23T16:09:21;205.20;6502.40
55331;DHT22;58851;42.984;20.336;2023-01-23T16:11:47;205.00;6502.40
55331;DHT22;58851;42.984;20.336;2023-01-23T16:14:17;205.00;6502.40
55331;DHT22;58851;42.984;20.336;2023-01-23T16:16:44;205.00;6502.40
55331;DHT22;58851;42.984;20.336;2023-01-23T16:19:10;205.00;6502.40
55331;DHT22;58851;42.984;20.336;2023-01-23T16:21:36;205.00;6502.40
55331;DHT22;58851;42.984;20.336;2023-01-23T16:24:02;205.00;6502.40
55331;DHT22;58851;42.984;20.336;2023-01-23T16:26:28;204.90;460.80
55331;DHT22;58851;42.984;20.336;2023-01-23T16:28:55;204.80;6502.40
55331;DHT22;58851;42.984;20.336;2023-01-23T16:31:21;204.80;6502.40
55331;DHT22;58851;42.984;20.336;2023-01-23T16:33:47;180.10;6502.40
55331;DHT22;58851;42.984;20.336;2023-01-23T16:36:15;180.00;6502.40
55331;DHT22;58851;42.984;20.336;2023-01-23T16:38:47;180.00;6502.40